createdAt,value
2023-05-12T00:01:03.029Z,12.08
2023-05-12T00:04:41.752Z,12.01
2023-05-12T00:08:18.733Z,12.05
2023-05-12T00:11:56.504Z,12.12
2023-05-12T00:15:33.877Z,12.17
2023-05-12T00:19:12.415Z,12.24
2023-05-12T00:22:49.504Z,12.29
2023-05-12T00:26:27.070Z,12.33
2023-05-12T00:30:05.132Z,12.36
2023-05-12T00:33:42.872Z,12.34
2023-05-12T00:37:19.874Z,12.36
2023-05-12T00:40:57.515Z,12.38
2023-05-12T00:44:35.454Z,12.39
2023-05-12T00:48:14.033Z,12.38
2023-05-12T00:51:50.677Z,12.35
2023-05-12T00:55:30.520Z,12.33
2023-05-12T00:59:06.711Z,12.32
2023-05-12T01:02:43.862Z,12.32
2023-05-12T01:06:43.142Z,12.35
2023-05-12T01:09:59.499Z,12.34
2023-05-12T01:13:37.507Z,12.32
2023-05-12T01:17:19.735Z,12.31
2023-05-12T01:20:53.810Z,12.28
2023-05-12T01:24:34.489Z,12.25
2023-05-12T01:28:08.628Z,12.19
2023-05-12T01:31:48.964Z,12.10
2023-05-12T01:35:22.685Z,12.02
2023-05-12T01:39:00.696Z,11.94
2023-05-12T01:42:40.844Z,11.88
2023-05-12T01:46:17.908Z,11.84
2023-05-12T01:49:54.542Z,11.79
2023-05-12T01:53:31.313Z,11.74
2023-05-12T01:57:08.683Z,11.70
2023-05-12T02:00:46.394Z,11.66
2023-05-12T02:04:23.752Z,11.64
2023-05-12T02:08:02.098Z,11.62
2023-05-12T02:11:39.269Z,11.61
2023-05-12T02:15:17.469Z,11.61
2023-05-12T02:18:54.443Z,11.63
2023-05-12T02:22:32.729Z,11.65
2023-05-12T02:26:10.020Z,11.65
2023-05-12T02:29:47.801Z,11.62
2023-05-12T02:33:25.330Z,11.57
2023-05-12T02:37:03.140Z,11.53
2023-05-12T02:40:40.540Z,11.51
2023-05-12T02:44:18.808Z,11.52
2023-05-12T02:47:56.002Z,11.53
2023-05-12T02:51:33.682Z,11.53
2023-05-12T02:55:11.324Z,11.56
2023-05-12T02:58:49.086Z,11.57
2023-05-12T03:02:27.290Z,11.56
2023-05-12T03:06:05.260Z,11.54
2023-05-12T03:09:42.005Z,11.54
2023-05-12T03:13:19.800Z,11.56
2023-05-12T03:16:57.289Z,11.59
2023-05-12T03:20:35.175Z,11.62
2023-05-12T03:24:12.552Z,11.64
2023-05-12T03:27:50.401Z,11.64
2023-05-12T03:31:28.103Z,11.63
2023-05-12T03:35:08.092Z,11.61
2023-05-12T03:38:43.238Z,11.59
2023-05-12T03:42:21.518Z,11.59
2023-05-12T03:45:59.329Z,11.61
2023-05-12T03:49:36.633Z,11.64
2023-05-12T03:53:14.179Z,11.68
2023-05-12T03:56:53.756Z,11.71
2023-05-12T04:00:29.650Z,11.76
2023-05-12T04:04:07.520Z,11.80
2023-05-12T04:07:44.881Z,11.84
2023-05-12T04:11:23.677Z,11.86
2023-05-12T04:15:00.324Z,11.87
2023-05-12T04:18:38.405Z,11.88
2023-05-12T04:22:15.700Z,11.90
2023-05-12T04:25:53.474Z,11.94
2023-05-12T04:29:31.008Z,11.97
2023-05-12T04:33:11.670Z,12.01
2023-05-12T04:36:46.545Z,12.07
2023-05-12T04:40:24.389Z,12.15
2023-05-12T04:44:01.908Z,12.21
2023-05-12T04:47:39.318Z,12.31
2023-05-12T04:51:17.163Z,12.42
2023-05-12T04:54:54.505Z,12.59
2023-05-12T04:58:32.753Z,12.72
2023-05-12T05:02:10.514Z,12.80
2023-05-12T05:05:49.412Z,12.94
2023-05-12T05:09:25.483Z,13.11
2023-05-12T05:13:02.977Z,13.28
2023-05-12T05:16:40.761Z,13.46
2023-05-12T05:20:19.695Z,13.59
2023-05-12T05:23:56.362Z,13.75
2023-05-12T05:27:34.418Z,13.94
2023-05-12T05:31:18.000Z,14.19
2023-05-12T05:34:49.105Z,14.48
2023-05-12T05:38:27.270Z,14.74
2023-05-12T05:42:05.284Z,14.98
2023-05-12T05:45:42.438Z,15.22
2023-05-12T05:49:20.474Z,15.37
2023-05-12T05:52:57.767Z,15.35
2023-05-12T05:56:36.422Z,15.44
2023-05-12T06:00:15.464Z,15.51
2023-05-12T06:03:50.617Z,15.52
2023-05-12T06:07:28.339Z,15.62
2023-05-12T06:11:05.977Z,15.75
2023-05-12T06:14:43.378Z,15.88
2023-05-12T06:18:23.485Z,16.20
2023-05-12T06:21:58.926Z,16.52
2023-05-12T06:25:36.906Z,16.78
2023-05-12T06:29:15.402Z,16.95
2023-05-12T06:32:52.220Z,17.01
2023-05-12T06:40:08.088Z,16.84
2023-05-12T06:43:46.367Z,16.75
2023-05-12T06:47:23.031Z,16.68
2023-05-12T06:51:00.384Z,16.74
2023-05-12T06:54:38.530Z,16.82
2023-05-12T06:58:15.923Z,16.96
2023-05-12T07:01:53.416Z,17.07
2023-05-12T07:05:31.255Z,16.98
2023-05-12T07:09:08.774Z,17.05
2023-05-12T07:13:05.706Z,17.28
2023-05-12T07:16:24.386Z,17.53
2023-05-12T07:20:01.929Z,17.76
2023-05-12T07:23:39.761Z,17.91
2023-05-12T07:27:17.907Z,17.99
2023-05-12T07:30:54.802Z,18.07
2023-05-12T07:34:34.062Z,18.15
2023-05-12T07:41:47.964Z,18.36
2023-05-12T07:49:03.375Z,18.43
2023-05-12T07:52:48.142Z,18.45
2023-05-12T07:59:56.063Z,18.36
2023-05-12T08:03:35.750Z,18.37
2023-05-12T08:07:11.681Z,18.37
2023-05-12T08:10:49.330Z,18.36
2023-05-12T08:14:27.177Z,18.22
2023-05-12T08:18:04.746Z,18.11
2023-05-12T08:21:42.646Z,18.07
2023-05-12T08:25:20.509Z,18.03
2023-05-12T08:28:57.446Z,18.05
2023-05-12T08:32:36.259Z,18.00
2023-05-12T08:36:13.400Z,17.92
2023-05-12T08:43:38.538Z,17.96
2023-05-12T08:47:07.139Z,18.00
2023-05-12T08:50:45.856Z,18.08
2023-05-12T08:54:22.889Z,18.10
2023-05-12T08:58:02.589Z,18.12
2023-05-12T09:01:56.446Z,18.34
2023-05-12T09:05:14.406Z,18.46
2023-05-12T09:08:52.759Z,18.54
2023-05-12T09:12:34.855Z,18.63
2023-05-12T09:16:12.246Z,18.65
2023-05-12T09:19:45.477Z,18.80
2023-05-12T09:23:23.318Z,18.96
2023-05-12T09:27:00.616Z,19.16
2023-05-12T09:30:38.961Z,19.33
2023-05-12T09:34:15.839Z,19.43
2023-05-12T09:37:53.849Z,19.53
2023-05-12T09:41:37.179Z,19.56
2023-05-12T09:45:10.079Z,19.59
2023-05-12T09:48:48.425Z,19.70
2023-05-12T09:52:24.501Z,19.75
2023-05-12T09:56:01.906Z,19.81
2023-05-12T09:59:41.643Z,19.86
2023-05-12T10:03:18.644Z,19.84
2023-05-12T10:06:56.484Z,19.75
2023-05-12T10:10:53.619Z,19.74
2023-05-12T10:14:11.374Z,19.80
2023-05-12T10:17:51.551Z,19.79
2023-05-12T10:21:26.351Z,19.71
2023-05-12T10:25:03.713Z,19.62
2023-05-12T10:28:43.031Z,19.59
2023-05-12T10:32:19.156Z,19.54
2023-05-12T10:35:56.593Z,19.53
2023-05-12T10:39:34.805Z,19.42
2023-05-12T10:43:23.959Z,19.31
2023-05-12T10:47:03.377Z,19.27
2023-05-12T10:50:28.425Z,19.23
2023-05-12T10:54:11.000Z,19.24
2023-05-12T10:57:54.657Z,19.21
2023-05-12T11:01:26.218Z,19.17
2023-05-12T11:04:59.952Z,19.18
2023-05-12T11:08:37.908Z,19.18
2023-05-12T11:12:14.411Z,19.15
2023-05-12T11:15:51.781Z,19.11
2023-05-12T11:19:28.782Z,19.13
2023-05-12T11:23:06.956Z,19.23
2023-05-12T11:26:44.157Z,19.32
2023-05-12T11:30:22.267Z,19.38
2023-05-12T11:34:11.971Z,19.48
2023-05-12T11:37:39.562Z,19.58
2023-05-12T11:41:14.478Z,19.70
2023-05-12T11:44:53.119Z,19.74
2023-05-12T11:52:07.870Z,19.73
2023-05-12T11:55:54.047Z,19.76
2023-05-12T12:03:16.064Z,19.65
2023-05-12T12:06:45.136Z,19.55
2023-05-12T12:10:20.582Z,19.44
2023-05-12T12:13:58.462Z,19.36
2023-05-12T12:17:36.116Z,19.23
2023-05-12T12:21:13.816Z,19.05
2023-05-12T12:24:51.349Z,18.93
2023-05-12T12:28:29.049Z,18.80
2023-05-12T12:32:06.759Z,18.65
2023-05-12T12:35:44.558Z,18.50
2023-05-12T12:39:23.307Z,18.42
2023-05-12T12:42:59.464Z,18.26
2023-05-12T12:46:37.849Z,18.10
2023-05-12T12:50:15.946Z,17.98
2023-05-12T12:53:52.578Z,17.84
2023-05-12T12:57:30.628Z,17.67
2023-05-12T13:01:07.876Z,17.49
2023-05-12T13:04:45.688Z,17.40
2023-05-12T13:08:42.516Z,17.37
2023-05-12T13:12:01.535Z,17.53
2023-05-12T13:19:16.309Z,18.08
2023-05-12T13:26:31.667Z,18.52
2023-05-12T13:30:28.328Z,18.69
2023-05-12T13:33:47.307Z,18.72
2023-05-12T13:37:24.892Z,18.84
2023-05-12T13:41:02.732Z,18.95
2023-05-12T13:44:40.489Z,18.83
2023-05-12T13:48:17.784Z,18.52
2023-05-12T13:51:55.533Z,18.22
2023-05-12T13:55:34.609Z,17.98
2023-05-12T13:59:11.216Z,17.84
2023-05-12T14:02:49.255Z,17.83
2023-05-12T14:06:27.882Z,18.00
2023-05-12T14:10:04.387Z,18.23
2023-05-12T14:13:44.073Z,18.39
2023-05-12T14:17:19.626Z,18.36
2023-05-12T14:20:57.492Z,18.30
2023-05-12T14:24:35.070Z,18.19
2023-05-12T14:28:12.187Z,17.90
2023-05-12T14:31:50.136Z,17.52
2023-05-12T14:35:28.064Z,17.15
2023-05-12T14:39:05.868Z,16.86
2023-05-12T14:42:43.596Z,16.73
2023-05-12T14:46:39.566Z,16.71
2023-05-12T14:49:58.493Z,16.61
2023-05-12T14:53:35.860Z,16.55
2023-05-12T14:57:14.078Z,16.61
2023-05-12T15:00:52.032Z,16.67
2023-05-12T15:04:29.030Z,16.70
2023-05-12T15:08:06.605Z,16.76
2023-05-12T15:11:48.237Z,16.76
2023-05-12T15:15:22.443Z,16.74
2023-05-12T15:22:39.433Z,16.50
2023-05-12T15:26:31.419Z,16.39
2023-05-12T15:29:56.102Z,16.34
2023-05-12T15:33:32.274Z,16.38
2023-05-12T15:37:08.018Z,16.45
2023-05-12T15:40:46.001Z,16.54
2023-05-12T15:44:23.351Z,16.62
2023-05-12T15:48:01.328Z,16.68
2023-05-12T15:51:39.095Z,16.64
2023-05-12T15:55:38.330Z,16.40
2023-05-12T15:58:54.414Z,16.21
2023-05-12T16:02:32.277Z,16.04
2023-05-12T16:06:09.663Z,15.90
2023-05-12T16:09:47.996Z,15.92
2023-05-12T16:13:25.128Z,15.93
2023-05-12T16:17:02.924Z,15.94
2023-05-12T16:24:17.834Z,15.98
2023-05-12T16:27:55.934Z,15.94
2023-05-12T16:31:33.141Z,15.88
2023-05-12T16:35:11.245Z,15.84
2023-05-12T16:38:48.787Z,15.78
2023-05-12T16:42:26.323Z,15.76
2023-05-12T16:46:04.544Z,15.71
2023-05-12T16:49:41.585Z,15.57
2023-05-12T16:53:19.318Z,15.33
2023-05-12T16:56:59.133Z,15.16
2023-05-12T17:00:34.773Z,15.06
2023-05-12T17:04:12.585Z,14.91
2023-05-12T17:07:50.090Z,14.71
2023-05-12T17:11:27.668Z,14.52
2023-05-12T17:15:08.621Z,14.42
2023-05-12T17:22:21.841Z,14.27
2023-05-12T17:25:58.736Z,14.23
2023-05-12T17:29:36.171Z,14.20
2023-05-12T17:33:15.746Z,14.14
2023-05-12T17:36:51.303Z,14.05
2023-05-12T17:40:29.685Z,13.96
2023-05-12T17:44:06.732Z,13.86
2023-05-12T17:47:45.816Z,13.72
2023-05-12T17:51:21.990Z,13.58
2023-05-12T17:54:59.638Z,13.50
2023-05-12T17:58:37.525Z,13.41
2023-05-12T18:02:15.241Z,13.36
2023-05-12T18:09:30.515Z,13.22
2023-05-12T18:13:08.280Z,13.13
2023-05-12T18:16:45.738Z,13.06
2023-05-12T18:20:24.181Z,12.99
2023-05-12T18:24:01.580Z,12.91
2023-05-12T18:27:39.061Z,12.84
2023-05-12T18:31:19.709Z,12.90
2023-05-12T18:34:54.246Z,12.98
2023-05-12T18:38:32.344Z,12.79
2023-05-12T18:42:11.276Z,12.63
2023-05-12T18:45:47.640Z,12.51
2023-05-12T18:49:25.546Z,12.42
2023-05-12T18:53:03.791Z,12.34
2023-05-12T18:56:40.622Z,12.27
2023-05-12T19:00:18.651Z,12.22
2023-05-12T19:03:55.650Z,12.18
2023-05-12T19:07:33.815Z,12.14
2023-05-12T19:11:11.024Z,12.11
2023-05-12T19:14:48.872Z,12.10
2023-05-12T19:18:27.120Z,12.09
2023-05-12T19:22:05.846Z,12.07
2023-05-12T19:25:43.543Z,12.05
2023-05-12T19:29:19.128Z,12.03
2023-05-12T19:32:57.349Z,12.01
2023-05-12T19:36:36.351Z,12.00
2023-05-12T19:40:12.798Z,11.98
2023-05-12T19:43:50.402Z,11.96
2023-05-12T19:51:05.521Z,11.91
2023-05-12T19:54:43.236Z,11.87
2023-05-12T19:58:21.028Z,11.80
2023-05-12T20:01:58.511Z,11.74
2023-05-12T20:05:39.368Z,11.71
2023-05-12T20:09:14.058Z,11.66
2023-05-12T20:12:52.056Z,11.66
2023-05-12T20:16:30.135Z,11.66
2023-05-12T20:20:11.645Z,11.65
2023-05-12T20:23:44.632Z,11.63
2023-05-12T20:27:22.549Z,11.60
2023-05-12T20:30:59.903Z,11.57
2023-05-12T20:34:37.853Z,11.57
2023-05-12T20:38:15.475Z,11.61
2023-05-12T20:41:53.051Z,11.67
2023-05-12T20:45:30.614Z,11.75
2023-05-12T20:49:08.688Z,11.82
2023-05-12T20:52:47.524Z,11.86
2023-05-12T20:56:23.771Z,11.87
2023-05-12T21:00:01.075Z,11.88
2023-05-12T21:03:39.483Z,11.87
2023-05-12T21:07:17.439Z,11.89
2023-05-12T21:10:55.145Z,11.93
2023-05-12T21:14:38.768Z,11.98
2023-05-12T21:18:11.630Z,12.05
2023-05-12T21:21:47.421Z,12.15
2023-05-12T21:25:25.875Z,12.24
2023-05-12T21:29:03.776Z,12.30
2023-05-12T21:32:42.462Z,12.36
2023-05-12T21:36:18.031Z,12.39
2023-05-12T21:39:55.837Z,12.45
2023-05-12T21:43:33.337Z,12.53
2023-05-12T21:47:12.830Z,12.60
2023-05-12T21:50:58.344Z,12.64
2023-05-12T21:54:26.298Z,12.65
2023-05-12T21:58:03.737Z,12.64
2023-05-12T22:01:41.912Z,12.61
2023-05-12T22:05:19.082Z,12.59
2023-05-12T22:08:57.318Z,12.62
2023-05-12T22:12:34.949Z,12.66
2023-05-12T22:16:12.706Z,12.74
2023-05-12T22:19:50.339Z,12.79
2023-05-12T22:23:28.105Z,12.86
2023-05-12T22:27:05.923Z,12.96
2023-05-12T22:30:43.515Z,13.02
2023-05-12T22:34:20.989Z,13.06
2023-05-12T22:37:58.438Z,13.10
2023-05-12T22:41:36.677Z,13.12
2023-05-12T22:45:14.236Z,13.09
2023-05-12T22:48:52.798Z,13.10
2023-05-12T22:52:29.251Z,13.10
2023-05-12T22:56:08.507Z,13.10
2023-05-12T22:59:44.356Z,13.08
2023-05-12T23:03:22.434Z,13.03
2023-05-12T23:06:59.725Z,12.96
2023-05-12T23:10:38.049Z,12.90
2023-05-12T23:14:14.874Z,12.88
2023-05-12T23:17:53.072Z,12.87
2023-05-12T23:21:30.297Z,12.87
2023-05-12T23:25:08.829Z,12.88
2023-05-12T23:28:46.084Z,12.89
2023-05-12T23:32:23.645Z,12.89
2023-05-12T23:36:01.183Z,12.84
2023-05-12T23:39:38.713Z,12.78
2023-05-12T23:43:16.268Z,12.70
2023-05-12T23:46:54.245Z,12.59
2023-05-12T23:50:31.937Z,12.49
2023-05-12T23:57:47.411Z,12.36
